sensor_id;sensor_type;location;lat;lon;timestamp;temperature;humidity
18753;DHT22;9505;50.882;5.350;2023-04-25T00:00:33;8.20;99.90
18753;DHT22;9505;50.882;5.350;2023-04-25T00:02:58;8.20;99.90
18753;DHT22;9505;50.882;5.350;2023-04-25T00:05:26;8.20;99.90
18753;DHT22;9505;50.882;5.350;2023-04-25T00:07:52;8.20;99.90
18753;DHT22;9505;50.882;5.350;2023-04-25T00:10:19;8.30;99.90
18753;DHT22;9505;50.882;5.350;2023-04-25T00:12:44;8.30;99.90
18753;DHT22;9505;50.882;5.350;2023-04-25T00:15:11;8.20;99.90
18753;DHT22;9505;50.882;5.350;2023-04-25T00:17:37;8.20;99.90
18753;DHT22;9505;50.882;5.350;2023-04-25T00:20:05;8.20;99.90
18753;DHT22;9505;50.882;5.350;2023-04-25T00:22:31;8.20;99.90
18753;DHT22;9505;50.882;5.350;2023-04-25T00:24:57;8.20;99.90
18753;DHT22;9505;50.882;5.350;2023-04-25T00:27:25;8.20;99.90
18753;DHT22;9505;50.882;5.350;2023-04-25T00:29:51;8.10;99.90
18753;DHT22;9505;50.882;5.350;2023-04-25T00:32:17;8.10;99.90
18753;DHT22;9505;50.882;5.350;2023-04-25T00:34:43;8.10;99.90
18753;DHT22;9505;50.882;5.350;2023-04-25T00:37:08;8.10;99.90
18753;DHT22;9505;50.882;5.350;2023-04-25T00:39:34;8.10;99.90
18753;DHT22;9505;50.882;5.350;2023-04-25T00:42:00;8.10;99.90
18753;DHT22;9505;50.882;5.350;2023-04-25T00:44:27;8.20;99.90
18753;DHT22;9505;50.882;5.350;2023-04-25T00:46:55;8.20;99.90
18753;DHT22;9505;50.882;5.350;2023-04-25T00:49:20;8.10;99.90
18753;DHT22;9505;50.882;5.350;2023-04-25T00:51:46;8.10;99.90
18753;DHT22;9505;50.882;5.350;2023-04-25T00:54:13;8.00;99.90
18753;DHT22;9505;50.882;5.350;2023-04-25T00:56:39;8.00;99.90
18753;DHT22;9505;50.882;5.350;2023-04-25T00:59:05;8.00;99.90
18753;DHT22;9505;50.882;5.350;2023-04-25T01:01:32;7.90;99.90
18753;DHT22;9505;50.882;5.350;2023-04-25T01:03:58;7.90;99.90
18753;DHT22;9505;50.882;5.350;2023-04-25T01:06:25;7.90;99.90
18753;DHT22;9505;50.882;5.350;2023-04-25T01:08:51;7.90;99.90
18753;DHT22;9505;50.882;5.350;2023-04-25T01:11:17;7.90;99.90
18753;DHT22;9505;50.882;5.350;2023-04-25T01:13:43;8.00;99.90
18753;DHT22;9505;50.882;5.350;2023-04-25T01:16:08;8.00;99.90
18753;DHT22;9505;50.882;5.350;2023-04-25T01:18:34;7.90;99.90
18753;DHT22;9505;50.882;5.350;2023-04-25T01:21:11;8.00;99.90
18753;DHT22;9505;50.882;5.350;2023-04-25T01:23:39;8.00;99.90
18753;DHT22;9505;50.882;5.350;2023-04-25T01:26:07;7.90;99.90
18753;DHT22;9505;50.882;5.350;2023-04-25T01:28:34;7.90;99.90
18753;DHT22;9505;50.882;5.350;2023-04-25T01:31:01;7.90;99.90
18753;DHT22;9505;50.882;5.350;2023-04-25T01:33:26;7.90;99.90
18753;DHT22;9505;50.882;5.350;2023-04-25T01:35:52;7.90;99.90
18753;DHT22;9505;50.882;5.350;2023-04-25T01:38:18;7.90;99.90
18753;DHT22;9505;50.882;5.350;2023-04-25T01:40:45;8.00;99.90
18753;DHT22;9505;50.882;5.350;2023-04-25T01:43:12;7.90;99.90
18753;DHT22;9505;50.882;5.350;2023-04-25T01:45:40;7.90;99.90
18753;DHT22;9505;50.882;5.350;2023-04-25T01:48:10;7.80;99.90
18753;DHT22;9505;50.882;5.350;2023-04-25T01:50:38;7.80;99.90
18753;DHT22;9505;50.882;5.350;2023-04-25T01:53:04;7.80;99.90
18753;DHT22;9505;50.882;5.350;2023-04-25T01:55:30;7.70;99.90
18753;DHT22;9505;50.882;5.350;2023-04-25T01:57:56;7.70;99.90
18753;DHT22;9505;50.882;5.350;2023-04-25T02:00:22;7.80;99.90
18753;DHT22;9505;50.882;5.350;2023-04-25T02:02:48;7.80;99.90
18753;DHT22;9505;50.882;5.350;2023-04-25T02:05:16;7.80;99.90
18753;DHT22;9505;50.882;5.350;2023-04-25T02:07:42;7.80;99.90
18753;DHT22;9505;50.882;5.350;2023-04-25T02:10:08;7.80;99.90
18753;DHT22;9505;50.882;5.350;2023-04-25T02:12:35;7.80;99.90
18753;DHT22;9505;50.882;5.350;2023-04-25T02:15:01;7.80;99.90
18753;DHT22;9505;50.882;5.350;2023-04-25T02:17:27;7.70;99.90
18753;DHT22;9505;50.882;5.350;2023-04-25T02:19:53;7.80;99.90
18753;DHT22;9505;50.882;5.350;2023-04-25T02:22:18;7.70;99.90
18753;DHT22;9505;50.882;5.350;2023-04-25T02:24:45;7.70;99.90
18753;DHT22;9505;50.882;5.350;2023-04-25T02:27:11;7.70;99.90
18753;DHT22;9505;50.882;5.350;2023-04-25T02:29:38;7.60;99.90
18753;DHT22;9505;50.882;5.350;2023-04-25T02:32:04;7.60;99.90
18753;DHT22;9505;50.882;5.350;2023-04-25T02:34:29;7.70;99.90
18753;DHT22;9505;50.882;5.350;2023-04-25T02:36:55;7.60;99.90
18753;DHT22;9505;50.882;5.350;2023-04-25T02:39:21;7.50;99.90
18753;DHT22;9505;50.882;5.350;2023-04-25T02:41:47;7.50;99.90
18753;DHT22;9505;50.882;5.350;2023-04-25T02:44:13;7.60;99.90
18753;DHT22;9505;50.882;5.350;2023-04-25T02:46:39;7.50;99.90
18753;DHT22;9505;50.882;5.350;2023-04-25T02:49:04;7.50;99.90
18753;DHT22;9505;50.882;5.350;2023-04-25T02:51:30;7.50;99.90
18753;DHT22;9505;50.882;5.350;2023-04-25T02:53:56;7.50;99.90
18753;DHT22;9505;50.882;5.350;2023-04-25T02:56:22;7.50;99.90
18753;DHT22;9505;50.882;5.350;2023-04-25T02:58:47;7.50;99.90
18753;DHT22;9505;50.882;5.350;2023-04-25T03:01:13;7.50;99.90
18753;DHT22;9505;50.882;5.350;2023-04-25T03:03:38;7.40;99.90
18753;DHT22;9505;50.882;5.350;2023-04-25T03:06:04;7.50;99.90
18753;DHT22;9505;50.882;5.350;2023-04-25T03:08:30;7.50;99.90
18753;DHT22;9505;50.882;5.350;2023-04-25T03:10:58;7.50;99.90
18753;DHT22;9505;50.882;5.350;2023-04-25T03:13:24;7.50;99.90
18753;DHT22;9505;50.882;5.350;2023-04-25T03:15:50;7.50;99.90
18753;DHT22;9505;50.882;5.350;2023-04-25T03:18:15;7.40;99.90
18753;DHT22;9505;50.882;5.350;2023-04-25T03:20:41;7.50;99.90
18753;DHT22;9505;50.882;5.350;2023-04-25T03:23:07;7.50;99.90
18753;DHT22;9505;50.882;5.350;2023-04-25T03:25:33;7.50;99.90
18753;DHT22;9505;50.882;5.350;2023-04-25T03:27:58;7.50;99.90
18753;DHT22;9505;50.882;5.350;2023-04-25T03:30:24;7.40;99.90
18753;DHT22;9505;50.882;5.350;2023-04-25T03:32:50;7.50;99.90
18753;DHT22;9505;50.882;5.350;2023-04-25T03:35:15;7.40;99.90
18753;DHT22;9505;50.882;5.350;2023-04-25T03:37:41;7.40;99.90
18753;DHT22;9505;50.882;5.350;2023-04-25T03:40:10;7.40;99.90
18753;DHT22;9505;50.882;5.350;2023-04-25T03:42:36;7.50;99.90
18753;DHT22;9505;50.882;5.350;2023-04-25T03:45:02;7.40;99.90
18753;DHT22;9505;50.882;5.350;2023-04-25T03:47:28;7.40;99.90
18753;DHT22;9505;50.882;5.350;2023-04-25T03:49:53;7.40;99.90
18753;DHT22;9505;50.882;5.350;2023-04-25T03:52:19;7.30;99.90
18753;DHT22;9505;50.882;5.350;2023-04-25T03:54:44;7.30;99.90
18753;DHT22;9505;50.882;5.350;2023-04-25T03:57:10;7.30;99.90
18753;DHT22;9505;50.882;5.350;2023-04-25T03:59:36;7.30;99.90
18753;DHT22;9505;50.882;5.350;2023-04-25T04:02:01;7.30;99.90
18753;DHT22;9505;50.882;5.350;2023-04-25T04:04:27;7.30;99.90
18753;DHT22;9505;50.882;5.350;2023-04-25T04:06:53;7.30;99.90
18753;DHT22;9505;50.882;5.350;2023-04-25T04:09:18;7.30;99.90
18753;DHT22;9505;50.882;5.350;2023-04-25T04:11:45;7.20;99.90
18753;DHT22;9505;50.882;5.350;2023-04-25T04:14:10;7.20;99.90
18753;DHT22;9505;50.882;5.350;2023-04-25T04:16:36;7.20;99.90
18753;DHT22;9505;50.882;5.350;2023-04-25T04:19:03;7.30;99.90
18753;DHT22;9505;50.882;5.350;2023-04-25T04:21:28;7.20;99.90
18753;DHT22;9505;50.882;5.350;2023-04-25T04:23:54;7.20;99.90
18753;DHT22;9505;50.882;5.350;2023-04-25T04:26:20;7.20;99.90
18753;DHT22;9505;50.882;5.350;2023-04-25T04:28:49;7.20;99.90
18753;DHT22;9505;50.882;5.350;2023-04-25T04:31:16;7.20;99.90
18753;DHT22;9505;50.882;5.350;2023-04-25T04:33:45;7.10;99.90
18753;DHT22;9505;50.882;5.350;2023-04-25T04:36:11;7.00;99.90
18753;DHT22;9505;50.882;5.350;2023-04-25T04:38:37;6.90;99.90
18753;DHT22;9505;50.882;5.350;2023-04-25T04:41:02;6.90;99.90
18753;DHT22;9505;50.882;5.350;2023-04-25T04:43:29;6.90;99.90
18753;DHT22;9505;50.882;5.350;2023-04-25T04:45:55;7.00;99.90
18753;DHT22;9505;50.882;5.350;2023-04-25T04:48:24;6.90;99.90
18753;DHT22;9505;50.882;5.350;2023-04-25T04:50:50;6.90;99.90
18753;DHT22;9505;50.882;5.350;2023-04-25T04:53:15;7.00;99.90
18753;DHT22;9505;50.882;5.350;2023-04-25T04:55:41;7.00;99.90
18753;DHT22;9505;50.882;5.350;2023-04-25T04:58:07;7.00;99.90
18753;DHT22;9505;50.882;5.350;2023-04-25T05:00:33;6.90;99.90
18753;DHT22;9505;50.882;5.350;2023-04-25T05:02:59;7.00;99.90
18753;DHT22;9505;50.882;5.350;2023-04-25T05:05:25;7.00;99.90
18753;DHT22;9505;50.882;5.350;2023-04-25T05:07:51;7.00;99.90
18753;DHT22;9505;50.882;5.350;2023-04-25T05:10:18;7.00;99.90
18753;DHT22;9505;50.882;5.350;2023-04-25T05:12:44;7.00;99.90
18753;DHT22;9505;50.882;5.350;2023-04-25T05:15:10;7.00;99.90
18753;DHT22;9505;50.882;5.350;2023-04-25T05:17:36;7.10;99.90
18753;DHT22;9505;50.882;5.350;2023-04-25T05:20:02;7.20;99.90
18753;DHT22;9505;50.882;5.350;2023-04-25T05:22:28;7.20;99.90
18753;DHT22;9505;50.882;5.350;2023-04-25T05:24:54;7.30;99.90
18753;DHT22;9505;50.882;5.350;2023-04-25T05:27:20;7.40;99.90
18753;DHT22;9505;50.882;5.350;2023-04-25T05:29:45;7.40;99.90
18753;DHT22;9505;50.882;5.350;2023-04-25T05:32:11;7.40;99.90
18753;DHT22;9505;50.882;5.350;2023-04-25T05:34:37;7.50;99.90
18753;DHT22;9505;50.882;5.350;2023-04-25T05:37:02;7.50;99.90
18753;DHT22;9505;50.882;5.350;2023-04-25T05:39:29;7.50;99.90
18753;DHT22;9505;50.882;5.350;2023-04-25T05:41:55;7.50;99.90
18753;DHT22;9505;50.882;5.350;2023-04-25T05:44:21;7.50;99.90
18753;DHT22;9505;50.882;5.350;2023-04-25T05:46:46;7.40;99.90
18753;DHT22;9505;50.882;5.350;2023-04-25T05:49:12;7.40;99.90
18753;DHT22;9505;50.882;5.350;2023-04-25T05:51:38;7.50;99.90
18753;DHT22;9505;50.882;5.350;2023-04-25T05:54:04;7.60;99.90
18753;DHT22;9505;50.882;5.350;2023-04-25T05:56:29;7.70;99.90
18753;DHT22;9505;50.882;5.350;2023-04-25T05:58:55;7.90;99.90
18753;DHT22;9505;50.882;5.350;2023-04-25T06:01:22;8.00;99.90
18753;DHT22;9505;50.882;5.350;2023-04-25T06:03:48;8.00;99.90
18753;DHT22;9505;50.882;5.350;2023-04-25T06:06:14;8.10;99.90
18753;DHT22;9505;50.882;5.350;2023-04-25T06:08:40;8.10;99.90
18753;DHT22;9505;50.882;5.350;2023-04-25T06:11:06;8.20;99.90
18753;DHT22;9505;50.882;5.350;2023-04-25T06:13:32;8.10;99.90
18753;DHT22;9505;50.882;5.350;2023-04-25T06:15:58;8.10;99.90
18753;DHT22;9505;50.882;5.350;2023-04-25T06:18:23;8.20;99.90
18753;DHT22;9505;50.882;5.350;2023-04-25T06:20:49;8.40;99.90
18753;DHT22;9505;50.882;5.350;2023-04-25T06:23:15;8.30;99.90
18753;DHT22;9505;50.882;5.350;2023-04-25T06:25:40;8.30;99.90
18753;DHT22;9505;50.882;5.350;2023-04-25T06:28:06;8.30;99.90
18753;DHT22;9505;50.882;5.350;2023-04-25T06:30:31;8.40;99.90
18753;DHT22;9505;50.882;5.350;2023-04-25T06:32:57;8.40;99.90
18753;DHT22;9505;50.882;5.350;2023-04-25T06:35:23;8.50;99.90
18753;DHT22;9505;50.882;5.350;2023-04-25T06:37:48;8.40;99.90
18753;DHT22;9505;50.882;5.350;2023-04-25T06:40:14;8.40;99.90
18753;DHT22;9505;50.882;5.350;2023-04-25T06:42:40;8.30;99.90
18753;DHT22;9505;50.882;5.350;2023-04-25T06:45:06;8.20;99.90
18753;DHT22;9505;50.882;5.350;2023-04-25T06:47:32;8.20;99.90
18753;DHT22;9505;50.882;5.350;2023-04-25T06:49:57;8.20;99.90
18753;DHT22;9505;50.882;5.350;2023-04-25T06:52:23;8.20;99.90
18753;DHT22;9505;50.882;5.350;2023-04-25T06:54:49;8.30;99.90
18753;DHT22;9505;50.882;5.350;2023-04-25T06:57:14;8.30;99.90
18753;DHT22;9505;50.882;5.350;2023-04-25T06:59:40;8.30;99.90
18753;DHT22;9505;50.882;5.350;2023-04-25T07:02:06;8.30;99.90
18753;DHT22;9505;50.882;5.350;2023-04-25T07:04:32;8.30;99.90
18753;DHT22;9505;50.882;5.350;2023-04-25T07:06:58;8.10;99.90
18753;DHT22;9505;50.882;5.350;2023-04-25T07:09:26;8.20;99.90
18753;DHT22;9505;50.882;5.350;2023-04-25T07:11:51;8.10;99.90
18753;DHT22;9505;50.882;5.350;2023-04-25T07:14:17;8.20;99.90
18753;DHT22;9505;50.882;5.350;2023-04-25T07:16:43;8.40;99.90
18753;DHT22;9505;50.882;5.350;2023-04-25T07:19:08;8.70;99.90
18753;DHT22;9505;50.882;5.350;2023-04-25T07:21:34;8.90;99.90
18753;DHT22;9505;50.882;5.350;2023-04-25T07:24:01;8.80;99.90
18753;DHT22;9505;50.882;5.350;2023-04-25T07:26:27;8.80;99.90
18753;DHT22;9505;50.882;5.350;2023-04-25T07:28:53;8.80;99.90
18753;DHT22;9505;50.882;5.350;2023-04-25T07:31:20;9.00;99.90
18753;DHT22;9505;50.882;5.350;2023-04-25T07:33:45;9.20;99.90
18753;DHT22;9505;50.882;5.350;2023-04-25T07:36:11;9.60;99.90
18753;DHT22;9505;50.882;5.350;2023-04-25T07:38:38;9.60;99.90
18753;DHT22;9505;50.882;5.350;2023-04-25T07:41:04;9.90;99.90
18753;DHT22;9505;50.882;5.350;2023-04-25T07:43:30;10.00;99.90
18753;DHT22;9505;50.882;5.350;2023-04-25T07:45:56;10.00;99.90
18753;DHT22;9505;50.882;5.350;2023-04-25T07:48:22;10.10;99.90
18753;DHT22;9505;50.882;5.350;2023-04-25T07:50:48;10.20;99.90
18753;DHT22;9505;50.882;5.350;2023-04-25T07:53:14;10.20;99.90
18753;DHT22;9505;50.882;5.350;2023-04-25T07:55:39;10.40;99.90
18753;DHT22;9505;50.882;5.350;2023-04-25T07:58:09;10.10;99.90
18753;DHT22;9505;50.882;5.350;2023-04-25T08:00:35;10.10;99.90
18753;DHT22;9505;50.882;5.350;2023-04-25T08:03:01;9.90;99.90
18753;DHT22;9505;50.882;5.350;2023-04-25T08:05:28;9.50;99.90
18753;DHT22;9505;50.882;5.350;2023-04-25T08:07:54;9.10;99.90
18753;DHT22;9505;50.882;5.350;2023-04-25T08:10:19;8.90;99.90
18753;DHT22;9505;50.882;5.350;2023-04-25T08:12:46;8.90;99.90
18753;DHT22;9505;50.882;5.350;2023-04-25T08:15:11;8.90;99.90
18753;DHT22;9505;50.882;5.350;2023-04-25T08:17:39;8.90;99.90
18753;DHT22;9505;50.882;5.350;2023-04-25T08:20:05;9.10;99.90
18753;DHT22;9505;50.882;5.350;2023-04-25T08:22:31;9.10;99.90
18753;DHT22;9505;50.882;5.350;2023-04-25T08:24:57;9.20;99.90
18753;DHT22;9505;50.882;5.350;2023-04-25T08:27:23;9.20;99.90
18753;DHT22;9505;50.882;5.350;2023-04-25T08:29:49;9.20;99.90
18753;DHT22;9505;50.882;5.350;2023-04-25T08:32:15;9.20;99.90
18753;DHT22;9505;50.882;5.350;2023-04-25T08:34:41;9.50;99.90
18753;DHT22;9505;50.882;5.350;2023-04-25T08:37:08;9.70;99.90
18753;DHT22;9505;50.882;5.350;2023-04-25T08:39:35;10.00;99.90
18753;DHT22;9505;50.882;5.350;2023-04-25T08:42:03;10.50;99.90
18753;DHT22;9505;50.882;5.350;2023-04-25T08:44:33;10.60;99.90
18753;DHT22;9505;50.882;5.350;2023-04-25T08:46:59;10.90;99.90
18753;DHT22;9505;50.882;5.350;2023-04-25T08:49:25;11.10;99.90
18753;DHT22;9505;50.882;5.350;2023-04-25T08:51:52;10.80;99.90
18753;DHT22;9505;50.882;5.350;2023-04-25T08:54:20;10.40;99.90
18753;DHT22;9505;50.882;5.350;2023-04-25T08:56:49;10.10;99.90
18753;DHT22;9505;50.882;5.350;2023-04-25T08:59:15;9.60;99.90
18753;DHT22;9505;50.882;5.350;2023-04-25T09:01:40;9.70;99.90
18753;DHT22;9505;50.882;5.350;2023-04-25T09:04:06;9.80;99.90
18753;DHT22;9505;50.882;5.350;2023-04-25T09:06:32;9.90;99.90
18753;DHT22;9505;50.882;5.350;2023-04-25T09:09:04;9.70;99.90
18753;DHT22;9505;50.882;5.350;2023-04-25T09:11:31;9.50;99.90
18753;DHT22;9505;50.882;5.350;2023-04-25T09:14:14;9.40;99.90
18753;DHT22;9505;50.882;5.350;2023-04-25T09:17:12;9.40;99.90
18753;DHT22;9505;50.882;5.350;2023-04-25T09:19:39;9.50;99.90
18753;DHT22;9505;50.882;5.350;2023-04-25T09:22:06;9.40;99.90
18753;DHT22;9505;50.882;5.350;2023-04-25T09:24:42;9.40;99.90
18753;DHT22;9505;50.882;5.350;2023-04-25T09:27:17;9.60;99.90
18753;DHT22;9505;50.882;5.350;2023-04-25T09:29:43;9.70;99.90
18753;DHT22;9505;50.882;5.350;2023-04-25T09:32:24;9.90;99.90
18753;DHT22;9505;50.882;5.350;2023-04-25T09:34:51;10.10;99.90
18753;DHT22;9505;50.882;5.350;2023-04-25T09:39:55;10.70;99.90
18753;DHT22;9505;50.882;5.350;2023-04-25T09:42:25;11.00;99.90
18753;DHT22;9505;50.882;5.350;2023-04-25T09:44:54;11.40;99.90
18753;DHT22;9505;50.882;5.350;2023-04-25T09:47:23;11.80;99.90
18753;DHT22;9505;50.882;5.350;2023-04-25T09:49:49;11.50;99.90
18753;DHT22;9505;50.882;5.350;2023-04-25T09:52:20;11.50;99.90
18753;DHT22;9505;50.882;5.350;2023-04-25T09:54:46;11.30;99.90
18753;DHT22;9505;50.882;5.350;2023-04-25T09:57:18;11.10;99.90
18753;DHT22;9505;50.882;5.350;2023-04-25T09:59:54;11.30;99.90
18753;DHT22;9505;50.882;5.350;2023-04-25T10:02:25;12.00;99.90
18753;DHT22;9505;50.882;5.350;2023-04-25T10:04:52;13.20;99.90
18753;DHT22;9505;50.882;5.350;2023-04-25T10:07:22;14.00;99.90
18753;DHT22;9505;50.882;5.350;2023-04-25T10:09:55;14.20;99.90
18753;DHT22;9505;50.882;5.350;2023-04-25T10:12:24;13.80;99.90
18753;DHT22;9505;50.882;5.350;2023-04-25T10:14:50;13.50;99.90
18753;DHT22;9505;50.882;5.350;2023-04-25T10:17:17;13.40;99.90
18753;DHT22;9505;50.882;5.350;2023-04-25T10:19:47;13.10;99.90
18753;DHT22;9505;50.882;5.350;2023-04-25T10:22:26;13.20;99.90
18753;DHT22;9505;50.882;5.350;2023-04-25T10:24:55;12.80;99.90
18753;DHT22;9505;50.882;5.350;2023-04-25T10:27:22;12.60;99.90
18753;DHT22;9505;50.882;5.350;2023-04-25T10:30:04;12.30;99.90
18753;DHT22;9505;50.882;5.350;2023-04-25T10:32:33;12.10;99.90
18753;DHT22;9505;50.882;5.350;2023-04-25T10:35:17;11.80;99.90
18753;DHT22;9505;50.882;5.350;2023-04-25T10:38:08;11.50;99.90
18753;DHT22;9505;50.882;5.350;2023-04-25T10:40:34;11.20;99.90
18753;DHT22;9505;50.882;5.350;2023-04-25T10:45:59;10.90;99.90
18753;DHT22;9505;50.882;5.350;2023-04-25T10:48:29;10.60;99.90
18753;DHT22;9505;50.882;5.350;2023-04-25T10:51:10;10.50;99.90
18753;DHT22;9505;50.882;5.350;2023-04-25T10:53:37;10.40;99.90
18753;DHT22;9505;50.882;5.350;2023-04-25T10:56:19;10.50;99.90
18753;DHT22;9505;50.882;5.350;2023-04-25T10:58:45;11.20;99.90
18753;DHT22;9505;50.882;5.350;2023-04-25T11:01:15;12.40;99.90
18753;DHT22;9505;50.882;5.350;2023-04-25T11:03:44;12.50;99.90
18753;DHT22;9505;50.882;5.350;2023-04-25T11:06:22;12.30;99.90
18753;DHT22;9505;50.882;5.350;2023-04-25T11:08:53;12.30;99.90
18753;DHT22;9505;50.882;5.350;2023-04-25T11:11:19;12.10;99.90
18753;DHT22;9505;50.882;5.350;2023-04-25T11:13:48;12.30;99.90
18753;DHT22;9505;50.882;5.350;2023-04-25T11:16:15;12.80;99.90
18753;DHT22;9505;50.882;5.350;2023-04-25T11:18:42;12.40;99.90
18753;DHT22;9505;50.882;5.350;2023-04-25T11:21:08;12.30;99.90
18753;DHT22;9505;50.882;5.350;2023-04-25T11:23:33;12.10;99.90
18753;DHT22;9505;50.882;5.350;2023-04-25T11:25:59;12.80;99.90
18753;DHT22;9505;50.882;5.350;2023-04-25T11:28:26;13.70;99.90
18753;DHT22;9505;50.882;5.350;2023-04-25T11:30:52;14.40;99.90
18753;DHT22;9505;50.882;5.350;2023-04-25T11:33:22;14.50;99.90
18753;DHT22;9505;50.882;5.350;2023-04-25T11:35:48;14.60;99.80
18753;DHT22;9505;50.882;5.350;2023-04-25T11:38:13;14.80;98.60
18753;DHT22;9505;50.882;5.350;2023-04-25T11:40:40;14.80;99.50
18753;DHT22;9505;50.882;5.350;2023-04-25T11:43:06;14.60;99.90
18753;DHT22;9505;50.882;5.350;2023-04-25T11:45:32;14.80;99.90
18753;DHT22;9505;50.882;5.350;2023-04-25T11:47:58;14.90;98.70
18753;DHT22;9505;50.882;5.350;2023-04-25T11:50:23;14.50;98.90
18753;DHT22;9505;50.882;5.350;2023-04-25T11:52:49;14.20;99.50
18753;DHT22;9505;50.882;5.350;2023-04-25T11:55:16;14.50;99.90
18753;DHT22;9505;50.882;5.350;2023-04-25T11:57:45;15.00;99.90
18753;DHT22;9505;50.882;5.350;2023-04-25T12:00:16;15.40;99.90
18753;DHT22;9505;50.882;5.350;2023-04-25T12:02:43;15.90;99.30
18753;DHT22;9505;50.882;5.350;2023-04-25T12:05:10;15.90;96.90
18753;DHT22;9505;50.882;5.350;2023-04-25T12:07:37;15.50;99.90
18753;DHT22;9505;50.882;5.350;2023-04-25T12:10:08;15.10;99.90
18753;DHT22;9505;50.882;5.350;2023-04-25T12:12:35;15.00;98.90
18753;DHT22;9505;50.882;5.350;2023-04-25T12:15:12;15.00;99.90
18753;DHT22;9505;50.882;5.350;2023-04-25T12:17:40;15.10;99.90
18753;DHT22;9505;50.882;5.350;2023-04-25T12:20:10;15.30;98.50
18753;DHT22;9505;50.882;5.350;2023-04-25T12:22:36;15.30;98.40
18753;DHT22;9505;50.882;5.350;2023-04-25T12:25:03;15.10;97.40
18753;DHT22;9505;50.882;5.350;2023-04-25T12:27:31;14.10;97.90
18753;DHT22;9505;50.882;5.350;2023-04-25T12:29:57;13.50;98.00
18753;DHT22;9505;50.882;5.350;2023-04-25T12:32:23;12.80;99.90
18753;DHT22;9505;50.882;5.350;2023-04-25T12:34:49;12.40;99.90
18753;DHT22;9505;50.882;5.350;2023-04-25T12:37:15;11.80;99.90
18753;DHT22;9505;50.882;5.350;2023-04-25T12:39:41;11.20;99.90
18753;DHT22;9505;50.882;5.350;2023-04-25T12:42:06;11.40;99.90
18753;DHT22;9505;50.882;5.350;2023-04-25T12:44:37;11.10;99.90
18753;DHT22;9505;50.882;5.350;2023-04-25T12:47:03;11.00;99.90
18753;DHT22;9505;50.882;5.350;2023-04-25T12:49:29;10.80;99.90
18753;DHT22;9505;50.882;5.350;2023-04-25T12:51:55;10.60;99.90
18753;DHT22;9505;50.882;5.350;2023-04-25T12:54:21;10.50;99.90
18753;DHT22;9505;50.882;5.350;2023-04-25T12:56:46;10.80;99.90
18753;DHT22;9505;50.882;5.350;2023-04-25T12:59:12;11.10;99.90
18753;DHT22;9505;50.882;5.350;2023-04-25T13:01:38;11.30;99.90
18753;DHT22;9505;50.882;5.350;2023-04-25T13:04:04;11.80;99.90
18753;DHT22;9505;50.882;5.350;2023-04-25T13:06:30;12.60;99.90
18753;DHT22;9505;50.882;5.350;2023-04-25T13:08:56;12.70;99.90
18753;DHT22;9505;50.882;5.350;2023-04-25T13:11:21;12.60;99.90
18753;DHT22;9505;50.882;5.350;2023-04-25T13:13:47;12.90;99.90
18753;DHT22;9505;50.882;5.350;2023-04-25T13:16:13;13.30;99.90
18753;DHT22;9505;50.882;5.350;2023-04-25T13:18:41;13.70;99.90
18753;DHT22;9505;50.882;5.350;2023-04-25T13:21:09;14.10;99.90
18753;DHT22;9505;50.882;5.350;2023-04-25T13:23:35;14.90;99.90
18753;DHT22;9505;50.882;5.350;2023-04-25T13:26:00;15.10;99.90
18753;DHT22;9505;50.882;5.350;2023-04-25T13:28:27;14.60;99.90
18753;DHT22;9505;50.882;5.350;2023-04-25T13:30:53;14.00;99.90
18753;DHT22;9505;50.882;5.350;2023-04-25T13:33:19;13.90;99.90
18753;DHT22;9505;50.882;5.350;2023-04-25T13:35:47;13.90;99.90
18753;DHT22;9505;50.882;5.350;2023-04-25T13:38:20;13.90;99.90
18753;DHT22;9505;50.882;5.350;2023-04-25T13:40:46;13.60;99.90
18753;DHT22;9505;50.882;5.350;2023-04-25T13:43:12;12.90;99.90
18753;DHT22;9505;50.882;5.350;2023-04-25T13:45:37;12.80;99.90
18753;DHT22;9505;50.882;5.350;2023-04-25T13:48:03;12.50;99.90
18753;DHT22;9505;50.882;5.350;2023-04-25T13:50:29;11.80;99.90
18753;DHT22;9505;50.882;5.350;2023-04-25T13:52:55;11.80;99.90
18753;DHT22;9505;50.882;5.350;2023-04-25T13:55:21;12.20;99.90
18753;DHT22;9505;50.882;5.350;2023-04-25T13:57:46;12.10;99.90
18753;DHT22;9505;50.882;5.350;2023-04-25T14:00:12;12.40;99.90
18753;DHT22;9505;50.882;5.350;2023-04-25T14:02:38;12.40;99.90
18753;DHT22;9505;50.882;5.350;2023-04-25T14:05:04;12.10;99.90
18753;DHT22;9505;50.882;5.350;2023-04-25T14:07:30;12.00;99.90
18753;DHT22;9505;50.882;5.350;2023-04-25T14:09:56;13.10;99.90
18753;DHT22;9505;50.882;5.350;2023-04-25T14:12:23;14.00;99.90
18753;DHT22;9505;50.882;5.350;2023-04-25T14:14:48;15.00;99.90
18753;DHT22;9505;50.882;5.350;2023-04-25T14:17:14;14.90;99.90
18753;DHT22;9505;50.882;5.350;2023-04-25T14:19:40;14.30;99.90
18753;DHT22;9505;50.882;5.350;2023-04-25T14:22:09;14.20;99.90
18753;DHT22;9505;50.882;5.350;2023-04-25T14:24:34;13.80;99.90
18753;DHT22;9505;50.882;5.350;2023-04-25T14:27:00;13.50;99.90
18753;DHT22;9505;50.882;5.350;2023-04-25T14:29:26;13.30;99.90
18753;DHT22;9505;50.882;5.350;2023-04-25T14:31:52;12.70;99.90
18753;DHT22;9505;50.882;5.350;2023-04-25T14:34:18;12.40;99.90
18753;DHT22;9505;50.882;5.350;2023-04-25T14:36:44;12.30;99.90
18753;DHT22;9505;50.882;5.350;2023-04-25T14:39:10;12.60;99.90
18753;DHT22;9505;50.882;5.350;2023-04-25T14:41:35;13.70;99.90
18753;DHT22;9505;50.882;5.350;2023-04-25T14:44:01;15.60;99.90
18753;DHT22;9505;50.882;5.350;2023-04-25T14:46:26;16.30;99.90
18753;DHT22;9505;50.882;5.350;2023-04-25T14:48:52;17.10;97.40
18753;DHT22;9505;50.882;5.350;2023-04-25T14:51:18;17.20;95.20
18753;DHT22;9505;50.882;5.350;2023-04-25T14:53:44;17.20;96.00
18753;DHT22;9505;50.882;5.350;2023-04-25T14:56:09;16.50;96.60
18753;DHT22;9505;50.882;5.350;2023-04-25T14:58:35;15.20;98.90
18753;DHT22;9505;50.882;5.350;2023-04-25T15:01:01;14.90;99.90
18753;DHT22;9505;50.882;5.350;2023-04-25T15:03:26;14.50;99.90
18753;DHT22;9505;50.882;5.350;2023-04-25T15:05:55;14.30;99.90
18753;DHT22;9505;50.882;5.350;2023-04-25T15:08:21;13.60;99.90
18753;DHT22;9505;50.882;5.350;2023-04-25T15:10:46;13.40;99.90
18753;DHT22;9505;50.882;5.350;2023-04-25T15:13:12;13.00;99.90
18753;DHT22;9505;50.882;5.350;2023-04-25T15:15:38;12.60;99.90
18753;DHT22;9505;50.882;5.350;2023-04-25T15:18:04;12.60;99.90
18753;DHT22;9505;50.882;5.350;2023-04-25T15:20:29;12.70;99.90
18753;DHT22;9505;50.882;5.350;2023-04-25T15:22:55;12.70;99.90
18753;DHT22;9505;50.882;5.350;2023-04-25T15:25:22;13.00;99.90
18753;DHT22;9505;50.882;5.350;2023-04-25T15:27:47;14.20;99.90
18753;DHT22;9505;50.882;5.350;2023-04-25T15:30:15;14.90;99.90
18753;DHT22;9505;50.882;5.350;2023-04-25T15:32:44;14.50;99.90
18753;DHT22;9505;50.882;5.350;2023-04-25T15:35:11;14.70;99.90
18753;DHT22;9505;50.882;5.350;2023-04-25T15:37:37;15.30;99.50
18753;DHT22;9505;50.882;5.350;2023-04-25T15:40:11;15.20;99.10
18753;DHT22;9505;50.882;5.350;2023-04-25T15:42:42;15.30;98.90
18753;DHT22;9505;50.882;5.350;2023-04-25T15:45:09;14.80;99.50
18753;DHT22;9505;50.882;5.350;2023-04-25T15:47:36;15.10;99.90
18753;DHT22;9505;50.882;5.350;2023-04-25T15:50:03;15.50;99.00
18753;DHT22;9505;50.882;5.350;2023-04-25T15:52:31;15.60;98.30
18753;DHT22;9505;50.882;5.350;2023-04-25T15:54:56;15.70;98.90
18753;DHT22;9505;50.882;5.350;2023-04-25T15:57:22;15.00;99.90